createdAt,value
2022-10-19T00:01:13.016Z,1.40
2022-10-19T00:03:41.182Z,1.10
2022-10-19T00:06:18.682Z,1.63
2022-10-19T00:08:46.269Z,1.47
2022-10-19T00:11:13.293Z,1.50
2022-10-19T00:13:40.327Z,1.40
2022-10-19T00:16:13.217Z,1.40
2022-10-19T00:18:41.272Z,1.50
2022-10-19T00:21:11.323Z,1.43
2022-10-19T00:23:38.543Z,0.98
2022-10-19T00:26:05.907Z,1.20
2022-10-19T00:28:32.950Z,1.30
2022-10-19T00:31:09.833Z,1.30
2022-10-19T00:33:37.501Z,1.20
2022-10-19T00:36:05.554Z,1.30
2022-10-19T00:38:32.641Z,1.40
2022-10-19T00:40:59.538Z,1.30
2022-10-19T00:43:32.845Z,1.08
2022-10-19T00:46:02.323Z,1.43
2022-10-19T00:48:33.148Z,1.33
2022-10-19T00:51:00.991Z,1.40
2022-10-19T00:53:30.724Z,1.20
2022-10-19T00:55:59.014Z,1.60
2022-10-19T00:58:25.997Z,1.10
2022-10-19T01:00:52.962Z,1.20
2022-10-19T01:03:21.392Z,1.40
2022-10-19T01:05:49.502Z,1.45
2022-10-19T01:08:16.869Z,1.10
2022-10-19T01:10:56.714Z,1.30
2022-10-19T01:13:47.207Z,1.20
2022-10-19T01:16:35.278Z,1.13
2022-10-19T01:19:35.085Z,1.30
2022-10-19T01:22:19.901Z,1.30
2022-10-19T01:25:19.541Z,1.37
2022-10-19T01:28:28.112Z,1.40
2022-10-19T01:31:18.915Z,1.25
2022-10-19T01:33:49.264Z,1.55
2022-10-19T01:36:26.756Z,2.00
2022-10-19T01:38:59.380Z,1.40
2022-10-19T01:42:17.490Z,1.35
2022-10-19T01:44:57.092Z,1.40
2022-10-19T01:47:28.573Z,1.40
2022-10-19T01:50:02.020Z,1.52
2022-10-19T01:52:32.131Z,1.50
2022-10-19T01:55:03.175Z,1.58
2022-10-19T01:57:37.493Z,1.50
2022-10-19T02:00:07.766Z,1.30
2022-10-19T02:02:45.289Z,1.52
2022-10-19T02:05:13.490Z,1.83
2022-10-19T02:07:44.657Z,1.38
2022-10-19T02:10:11.875Z,1.45
2022-10-19T02:12:40.873Z,1.40
2022-10-19T02:15:12.128Z,1.48
2022-10-19T02:17:44.494Z,1.53
2022-10-19T02:20:12.581Z,1.50
2022-10-19T02:22:44.826Z,1.70
2022-10-19T02:25:13.025Z,1.30
2022-10-19T02:27:44.181Z,1.40
2022-10-19T02:30:14.806Z,1.30
2022-10-19T02:32:47.439Z,1.30
2022-10-19T02:35:15.034Z,1.75
2022-10-19T02:37:42.764Z,1.40
2022-10-19T02:40:11.130Z,1.60
2022-10-19T02:42:44.843Z,1.50
2022-10-19T02:45:29.228Z,1.60
2022-10-19T02:48:02.111Z,1.63
2022-10-19T02:50:29.669Z,1.33
2022-10-19T02:52:59.435Z,1.60
2022-10-19T02:55:26.646Z,1.50
2022-10-19T02:57:54.117Z,1.30
2022-10-19T03:00:21.263Z,1.42
2022-10-19T03:02:48.521Z,1.80
2022-10-19T03:05:15.730Z,1.52
2022-10-19T03:07:43.460Z,1.60
2022-10-19T03:10:10.502Z,1.70
2022-10-19T03:12:38.790Z,1.80
2022-10-19T03:15:06.596Z,1.63
2022-10-19T03:17:33.884Z,1.50
2022-10-19T03:20:01.146Z,1.50
2022-10-19T03:22:30.053Z,2.00
2022-10-19T03:24:57.160Z,1.40
2022-10-19T03:27:24.163Z,1.30
2022-10-19T03:29:51.401Z,1.50
2022-10-19T03:32:18.541Z,1.73
2022-10-19T03:34:45.630Z,1.90
2022-10-19T03:37:13.784Z,1.88
2022-10-19T03:39:41.103Z,1.92
2022-10-19T03:42:07.958Z,2.15
2022-10-19T03:48:12.077Z,1.90
2022-10-19T04:18:45.867Z,4.03
2022-10-19T04:37:11.710Z,5.18
2022-10-19T05:30:07.027Z,7.53
2022-10-19T05:33:24.009Z,7.15
2022-10-19T05:37:43.219Z,7.03
2022-10-19T05:43:40.831Z,6.43
2022-10-19T05:46:11.411Z,7.03
2022-10-19T05:48:39.272Z,6.82
2022-10-19T05:51:07.910Z,6.30
2022-10-19T05:56:06.977Z,6.75
2022-10-19T05:58:35.290Z,6.80
2022-10-19T06:01:03.304Z,6.80
2022-10-19T06:03:31.068Z,7.60
2022-10-19T06:05:58.436Z,7.22
2022-10-19T06:08:25.747Z,7.05
2022-10-19T06:10:52.865Z,6.50
2022-10-19T06:13:20.778Z,6.97
2022-10-19T06:15:51.549Z,6.78
2022-10-19T06:18:25.682Z,7.10
2022-10-19T06:20:53.067Z,7.00
2022-10-19T06:23:20.138Z,7.93
2022-10-19T06:25:47.176Z,8.52
2022-10-19T06:28:14.142Z,7.97
2022-10-19T06:30:41.677Z,9.10
2022-10-19T06:33:08.838Z,9.30
2022-10-19T06:35:35.802Z,9.43
2022-10-19T06:38:02.823Z,10.80
2022-10-19T06:40:29.974Z,11.75
2022-10-19T06:42:57.090Z,12.45
2022-10-19T06:45:24.078Z,12.30
2022-10-19T06:47:51.040Z,14.30
2022-10-19T06:50:18.589Z,13.25
2022-10-19T06:52:46.209Z,13.82
2022-10-19T06:55:13.252Z,13.20
2022-10-19T06:57:40.183Z,13.95
2022-10-19T07:00:08.247Z,14.27
2022-10-19T07:02:35.301Z,13.95
2022-10-19T07:05:06.035Z,14.13
2022-10-19T07:07:34.856Z,13.38
2022-10-19T07:10:02.569Z,12.40
2022-10-19T07:12:30.266Z,11.87
2022-10-19T07:14:58.179Z,10.43
2022-10-19T07:17:25.178Z,11.00
2022-10-19T07:19:52.300Z,10.60
2022-10-19T07:22:23.229Z,11.27
2022-10-19T07:24:54.833Z,10.87
2022-10-19T07:27:21.899Z,12.93
2022-10-19T07:29:48.815Z,12.25
2022-10-19T07:32:20.837Z,13.13
2022-10-19T07:34:47.919Z,12.88
2022-10-19T07:37:14.979Z,14.23
2022-10-19T07:39:41.911Z,14.35
2022-10-19T07:42:11.190Z,13.55
2022-10-19T07:44:38.150Z,13.85
2022-10-19T07:47:06.256Z,12.35
2022-10-19T07:49:33.313Z,11.90
2022-10-19T07:52:00.288Z,11.10
2022-10-19T07:54:27.549Z,11.75
2022-10-19T07:56:54.596Z,10.93
2022-10-19T07:59:21.535Z,10.70
2022-10-19T08:01:49.040Z,11.03
2022-10-19T08:04:55.894Z,9.82
2022-10-19T08:07:04.210Z,9.27
2022-10-19T08:09:52.185Z,10.88
2022-10-19T08:12:18.399Z,8.93
2022-10-19T08:14:45.281Z,9.03
2022-10-19T08:17:16.715Z,8.85
2022-10-19T08:19:45.035Z,7.82
2022-10-19T08:22:12.132Z,7.70
2022-10-19T08:24:39.370Z,8.43
2022-10-19T08:27:06.426Z,7.47
2022-10-19T08:29:33.459Z,6.57
2022-10-19T08:32:00.495Z,6.80
2022-10-19T08:34:27.597Z,6.53
2022-10-19T08:36:54.587Z,6.55
2022-10-19T08:39:21.568Z,5.90
2022-10-19T08:42:05.584Z,6.57
2022-10-19T08:44:51.080Z,7.05
2022-10-19T08:47:37.138Z,6.53
2022-10-19T08:50:17.472Z,7.18
2022-10-19T08:52:49.797Z,6.63
2022-10-19T08:55:23.383Z,7.22
2022-10-19T08:58:14.879Z,6.47
2022-10-19T09:00:49.960Z,6.72
2022-10-19T09:03:56.211Z,7.40
2022-10-19T09:06:45.077Z,7.37
2022-10-19T09:09:15.791Z,7.03
2022-10-19T09:11:46.422Z,7.22
2022-10-19T09:14:23.453Z,8.20
2022-10-19T09:16:50.492Z,7.78
2022-10-19T09:19:29.373Z,8.10
2022-10-19T09:21:58.818Z,8.60
2022-10-19T09:24:29.314Z,8.07
2022-10-19T09:27:00.240Z,9.50
2022-10-19T09:29:46.311Z,9.35
2022-10-19T09:32:24.728Z,8.50
2022-10-19T09:34:55.016Z,9.02
2022-10-19T09:37:26.294Z,8.88
2022-10-19T09:39:57.334Z,8.95
2022-10-19T09:42:37.062Z,8.95
2022-10-19T09:45:20.147Z,9.40
2022-10-19T09:47:48.731Z,9.68
2022-10-19T09:50:26.980Z,10.00
2022-10-19T09:53:05.393Z,11.35
2022-10-19T09:55:42.613Z,10.68
2022-10-19T09:58:15.680Z,10.10
2022-10-19T10:00:55.051Z,10.93
2022-10-19T10:03:39.547Z,9.40
2022-10-19T10:06:09.967Z,9.40
2022-10-19T10:08:58.096Z,9.02
2022-10-19T10:11:28.751Z,9.10
2022-10-19T10:13:57.994Z,9.10
2022-10-19T10:16:33.804Z,9.80
2022-10-19T10:19:05.676Z,9.20
2022-10-19T10:21:36.555Z,8.40
2022-10-19T10:24:12.558Z,8.80
2022-10-19T10:27:06.405Z,9.48
2022-10-19T10:29:36.613Z,10.07
2022-10-19T10:32:05.584Z,9.63
2022-10-19T10:35:01.235Z,9.43
2022-10-19T10:37:39.719Z,7.77
2022-10-19T10:40:28.104Z,4.65
2022-10-19T10:42:58.267Z,4.68
2022-10-19T10:45:38.983Z,4.28
2022-10-19T10:48:30.909Z,6.03
2022-10-19T10:51:01.069Z,5.70
2022-10-19T10:53:38.638Z,4.60
2022-10-19T10:56:19.371Z,6.00
2022-10-19T10:58:51.196Z,5.63
2022-10-19T11:01:24.123Z,5.28
2022-10-19T11:04:01.030Z,5.40
2022-10-19T11:06:28.149Z,5.05
2022-10-19T11:09:26.318Z,5.40
2022-10-19T11:11:56.231Z,5.00
2022-10-19T11:14:51.252Z,4.72
2022-10-19T11:17:41.285Z,5.70
2022-10-19T11:20:16.035Z,6.13
2022-10-19T11:23:11.271Z,5.80
2022-10-19T11:25:44.395Z,5.97
2022-10-19T11:28:32.541Z,5.88
2022-10-19T11:31:36.112Z,6.03
2022-10-19T11:34:56.517Z,6.10
2022-10-19T11:38:20.697Z,5.47
2022-10-19T11:41:19.124Z,6.13
2022-10-19T11:44:17.073Z,6.18
2022-10-19T11:47:29.757Z,5.70
2022-10-19T11:49:57.033Z,4.90
2022-10-19T11:53:25.789Z,5.60
2022-10-19T12:05:00.626Z,5.97
2022-10-19T12:08:03.923Z,5.78
2022-10-19T12:11:20.399Z,6.05
2022-10-19T12:13:59.590Z,6.40
2022-10-19T12:16:44.005Z,6.75
2022-10-19T12:19:18.380Z,6.37
2022-10-19T12:21:46.668Z,5.45
2022-10-19T12:24:18.264Z,7.40
2022-10-19T12:26:47.208Z,7.78
2022-10-19T12:29:37.752Z,7.57
2022-10-19T12:32:06.269Z,6.33
2022-10-19T12:34:39.150Z,7.65
2022-10-19T13:10:04.703Z,6.38
2022-10-19T13:12:46.997Z,6.60
2022-10-19T13:15:35.453Z,8.35
2022-10-19T13:18:12.463Z,8.20
2022-10-19T13:23:07.309Z,7.32
2022-10-19T13:25:38.236Z,5.27
2022-10-19T13:28:17.638Z,5.18
2022-10-19T13:30:48.245Z,4.68
2022-10-19T13:33:33.461Z,5.47
2022-10-19T13:36:00.487Z,5.47
2022-10-19T13:41:09.358Z,5.43
2022-10-19T13:43:41.977Z,5.88
2022-10-19T13:46:18.724Z,5.80
2022-10-19T13:49:39.830Z,5.07
2022-10-19T13:52:09.707Z,5.50
2022-10-19T13:54:42.481Z,6.28
2022-10-19T13:57:50.001Z,11.27
2022-10-19T14:00:22.769Z,12.27
2022-10-19T14:03:19.365Z,15.15
2022-10-19T14:06:14.370Z,10.47
2022-10-19T14:09:11.861Z,7.93
2022-10-19T14:11:41.796Z,5.78
2022-10-19T14:14:11.817Z,6.10
2022-10-19T14:16:47.757Z,6.22
2022-10-19T14:19:26.857Z,5.47
2022-10-19T14:21:56.262Z,5.53
2022-10-19T14:24:34.047Z,6.00
2022-10-19T14:27:03.990Z,5.90
2022-10-19T14:29:45.588Z,5.72
2022-10-19T14:32:13.419Z,6.13
2022-10-19T14:34:42.323Z,5.50
2022-10-19T14:37:36.833Z,6.07
2022-10-19T14:40:08.548Z,5.78
2022-10-19T14:42:48.989Z,5.85
2022-10-19T14:45:21.740Z,7.10
2022-10-19T14:48:18.062Z,7.10
2022-10-19T14:50:49.930Z,6.50
2022-10-19T14:53:30.676Z,8.13
2022-10-19T14:56:01.978Z,6.65
2022-10-19T14:58:37.799Z,8.50
2022-10-19T15:01:05.888Z,18.13
2022-10-19T15:03:34.265Z,11.70
2022-10-19T15:06:10.350Z,9.48
2022-10-19T15:08:50.217Z,6.60
2022-10-19T15:11:28.458Z,6.83
2022-10-19T15:14:00.475Z,6.68
2022-10-19T15:19:34.171Z,6.63
2022-10-19T15:22:14.747Z,7.65
2022-10-19T15:24:57.222Z,5.87
2022-10-19T15:27:32.516Z,6.07
2022-10-19T15:30:24.718Z,5.60
2022-10-19T15:32:54.676Z,5.85
2022-10-19T15:35:27.708Z,6.20
2022-10-19T15:38:24.513Z,5.60
2022-10-19T15:40:58.987Z,6.25
2022-10-19T15:43:35.025Z,5.70
2022-10-19T15:46:03.558Z,5.90
2022-10-19T15:48:44.404Z,5.57
2022-10-19T15:51:23.912Z,4.80
2022-10-19T15:53:52.431Z,3.92
2022-10-19T15:56:20.852Z,4.40
2022-10-19T15:58:53.121Z,3.90
2022-10-19T16:01:28.647Z,5.43
2022-10-19T16:03:58.277Z,5.60
2022-10-19T16:06:29.009Z,4.53
2022-10-19T16:08:56.173Z,5.38
2022-10-19T16:11:23.464Z,4.53
2022-10-19T16:13:51.470Z,4.28
2022-10-19T16:16:33.226Z,4.17
2022-10-19T16:23:06.610Z,4.65
2022-10-19T16:25:39.991Z,6.43
2022-10-19T16:28:09.725Z,6.47
2022-10-19T16:30:49.639Z,4.90
2022-10-19T16:33:34.113Z,5.20
2022-10-19T16:36:04.399Z,4.75
2022-10-19T16:38:31.731Z,3.67
2022-10-19T16:41:04.019Z,5.30
2022-10-19T16:43:31.163Z,4.17
2022-10-19T16:45:58.343Z,4.47
2022-10-19T16:48:25.659Z,4.03
2022-10-19T16:51:24.269Z,4.85
2022-10-19T16:53:54.205Z,5.43
2022-10-19T16:56:21.328Z,4.77
2022-10-19T16:58:48.357Z,4.88
2022-10-19T17:01:17.743Z,5.53
2022-10-19T17:03:46.306Z,4.13
2022-10-19T17:06:14.397Z,5.13
2022-10-19T17:09:23.282Z,4.47
2022-10-19T17:11:32.272Z,4.53
2022-10-19T17:14:02.900Z,4.55
2022-10-19T17:16:32.106Z,4.93
2022-10-19T17:19:00.260Z,4.65
2022-10-19T17:21:33.183Z,5.23
2022-10-19T17:24:02.280Z,5.13
2022-10-19T17:26:39.099Z,4.75
2022-10-19T17:29:07.194Z,4.57
2022-10-19T17:31:35.352Z,4.53
2022-10-19T17:34:02.782Z,3.90
2022-10-19T17:36:36.518Z,4.00
2022-10-19T17:39:10.129Z,4.40
2022-10-19T17:41:37.742Z,4.30
2022-10-19T17:44:05.485Z,4.60
2022-10-19T17:46:34.547Z,3.67
2022-10-19T17:49:01.996Z,4.47
2022-10-19T17:51:31.335Z,4.63
2022-10-19T17:54:01.812Z,3.95
2022-10-19T17:56:29.791Z,4.38
2022-10-19T17:58:57.699Z,4.17
2022-10-19T18:01:25.950Z,4.15
2022-10-19T18:03:53.106Z,4.60
2022-10-19T18:06:24.496Z,4.20
2022-10-19T18:08:56.016Z,4.20
2022-10-19T18:11:26.085Z,4.80
2022-10-19T18:13:58.834Z,5.00
2022-10-19T18:16:30.482Z,4.75
2022-10-19T18:18:59.282Z,4.80
2022-10-19T18:21:30.611Z,4.50
2022-10-19T18:23:59.942Z,4.60
2022-10-19T18:26:29.462Z,4.82
2022-10-19T18:28:57.995Z,4.80
2022-10-19T18:31:29.446Z,4.47
2022-10-19T18:34:02.070Z,5.30
2022-10-19T18:36:30.340Z,5.30
2022-10-19T18:38:59.902Z,6.35
2022-10-19T18:41:28.319Z,5.32
2022-10-19T18:44:05.182Z,5.30
2022-10-19T18:46:35.006Z,5.10
2022-10-19T18:49:02.824Z,4.97
2022-10-19T18:51:32.105Z,5.07
2022-10-19T18:54:10.027Z,4.40
2022-10-19T18:56:37.297Z,5.30
2022-10-19T18:59:05.645Z,6.15
2022-10-19T19:01:32.925Z,6.27
2022-10-19T19:04:07.519Z,6.25
2022-10-19T19:06:36.295Z,5.20
2022-10-19T19:09:07.630Z,5.10
2022-10-19T19:11:37.594Z,5.07
2022-10-19T19:14:16.556Z,4.93
2022-10-19T19:16:44.998Z,4.85
2022-10-19T19:19:14.353Z,4.95
2022-10-19T19:21:44.525Z,4.45
2022-10-19T19:24:17.589Z,5.35
2022-10-19T19:26:48.592Z,4.87
2022-10-19T19:29:16.217Z,5.28
2022-10-19T19:31:43.917Z,4.32
2022-10-19T19:34:10.966Z,4.70
2022-10-19T19:39:11.816Z,4.60
2022-10-19T19:41:38.881Z,4.90
2022-10-19T19:44:06.036Z,4.90
2022-10-19T19:46:33.360Z,5.00
2022-10-19T19:49:05.026Z,4.70
2022-10-19T19:51:33.357Z,4.40
2022-10-19T19:54:00.518Z,5.07
2022-10-19T19:56:28.946Z,4.00
2022-10-19T19:58:59.076Z,4.63
2022-10-19T20:01:27.050Z,3.70
2022-10-19T20:03:54.146Z,4.40
2022-10-19T20:06:24.997Z,4.35
2022-10-19T20:08:54.311Z,4.40
2022-10-19T20:11:23.470Z,4.57
2022-10-19T20:13:51.344Z,4.47
2022-10-19T20:16:23.791Z,3.87
2022-10-19T20:19:00.217Z,4.35
2022-10-19T20:21:31.978Z,4.10
2022-10-19T20:23:59.261Z,3.60
2022-10-19T20:26:26.796Z,3.70
2022-10-19T20:28:54.410Z,3.73
2022-10-19T20:31:22.328Z,3.80
2022-10-19T20:33:49.801Z,3.85
2022-10-19T20:36:18.319Z,4.35
2022-10-19T20:38:47.766Z,4.10
2022-10-19T20:41:14.919Z,3.90
2022-10-19T20:43:41.997Z,4.40
2022-10-19T20:46:13.724Z,4.65
2022-10-19T20:48:41.073Z,3.47
2022-10-19T20:51:18.010Z,3.35
2022-10-19T20:53:47.928Z,3.40
2022-10-19T20:56:18.450Z,3.83
2022-10-19T20:58:45.854Z,3.42
2022-10-19T21:01:20.763Z,2.90
2022-10-19T21:03:53.023Z,3.70
2022-10-19T21:06:22.888Z,3.40
2022-10-19T21:08:50.259Z,4.00
2022-10-19T21:11:18.679Z,3.65
2022-10-19T21:13:46.710Z,3.67
2022-10-19T21:16:15.987Z,4.22
2022-10-19T21:18:44.583Z,4.07
2022-10-19T21:21:27.407Z,3.70
2022-10-19T21:23:57.972Z,3.53
2022-10-19T21:26:26.265Z,4.20
2022-10-19T21:28:53.954Z,3.75
2022-10-19T21:31:22.317Z,4.20
2022-10-19T21:33:49.928Z,3.78
2022-10-19T21:36:17.594Z,3.78
2022-10-19T21:38:44.852Z,3.70
2022-10-19T21:41:23.715Z,3.80
2022-10-19T21:43:53.745Z,4.50
2022-10-19T21:46:22.891Z,3.97
2022-10-19T21:48:51.114Z,3.97
2022-10-19T21:51:36.653Z,4.63
2022-10-19T21:54:06.259Z,4.70
2022-10-19T21:56:34.254Z,5.17
2022-10-19T21:59:01.250Z,4.80
2022-10-19T22:01:30.884Z,3.63
2022-10-19T22:03:59.445Z,4.20
2022-10-19T22:06:29.250Z,3.50
2022-10-19T22:08:56.782Z,3.80
2022-10-19T22:11:24.344Z,4.10
2022-10-19T22:13:59.908Z,3.70
2022-10-19T22:16:28.281Z,4.70
2022-10-19T22:18:56.512Z,4.07
2022-10-19T22:21:26.834Z,4.30
2022-10-19T22:24:00.497Z,3.85
2022-10-19T22:26:36.200Z,4.18
2022-10-19T22:29:04.890Z,3.80
2022-10-19T22:31:34.641Z,4.20
2022-10-19T22:34:03.275Z,4.10
2022-10-19T22:36:31.026Z,4.10
2022-10-19T22:38:58.105Z,3.25
2022-10-19T22:41:25.109Z,3.10
2022-10-19T22:43:52.201Z,3.35
2022-10-19T22:46:19.179Z,3.33
2022-10-19T22:48:46.055Z,3.30
2022-10-19T22:51:13.120Z,3.30
2022-10-19T22:53:40.258Z,3.47
2022-10-19T22:56:11.075Z,3.72
2022-10-19T22:58:38.743Z,3.87
2022-10-19T23:01:09.167Z,3.90
2022-10-19T23:03:37.657Z,3.17
2022-10-19T23:06:04.875Z,2.80
2022-10-19T23:08:31.859Z,3.17
2022-10-19T23:11:01.963Z,3.70
2022-10-19T23:13:30.210Z,3.28
2022-10-19T23:15:57.199Z,2.75
2022-10-19T23:18:26.315Z,3.10
2022-10-19T23:21:00.692Z,3.60
2022-10-19T23:23:28.855Z,3.20
2022-10-19T23:26:09.958Z,3.28
2022-10-19T23:28:39.878Z,3.10
2022-10-19T23:31:13.204Z,2.70
2022-10-19T23:33:41.011Z,2.97
2022-10-19T23:36:17.261Z,3.10
2022-10-19T23:38:45.198Z,3.30
2022-10-19T23:41:13.022Z,3.13
2022-10-19T23:43:40.724Z,2.90
2022-10-19T23:46:08.467Z,3.22
2022-10-19T23:48:35.925Z,3.00
2022-10-19T23:51:06.298Z,3.58
2022-10-19T23:53:39.924Z,3.00
2022-10-19T23:56:23.391Z,3.65
2022-10-19T23:58:50.877Z,3.65
